Pollok, TX (75969)

4:48 PM CDT on September 01, 2015 (GMT -0500)
allen town | | Change Station
CLOSE
Current Station
Personal Weather Station
Location: Pollok, TX
Elevation: 335 ft
Nearby Weather Stations

Elev 335 ft 31.45 °N, 94.87 °W | Updated 7 minutes ago

Mostly Cloudy
Mostly Cloudy
76.2 °F
Feels Like 76 °F
N
0.0
Wind Variable Wind from SW

Today
High -- | Low -- °F
--% Chance of Precip.
Yesterday
High -- | Low -- °F
Precip. -- in
6:55 AM 7:43 PM
Waning Gibbous, 86% visible
Pressure 30.02 in
Visibility 10.0 miles
Clouds Few 5500 ft
Heat Index 76 °F
Dew Point 74 °F
Humidity 93%
Rainfall 0.29 in
Snow Depth Not available.
UV 4 out of 12
Pollen 8.70 out of 12
Air Quality Not available.
Flu Activity Not available.
METAR KOCH 012135Z AUTO 14010KT 10SM FEW055 30/20 A3002 RMK AO1 LTG DSNT W TSB10E25
Pressure 30.02 in
Visibility 10.0 miles
Clouds Few 5500 ft
Heat Index 76 °F
Dew Point 74 °F
Humidity 93%
Rainfall 0.29 in
Snow Depth Not available.
UV 4 out of 12
Pollen 8.70 out of 12
Air Quality Not available.
Flu Activity Not available.
METAR KOCH 012135Z AUTO 14010KT 10SM FEW055 30/20 A3002 RMK AO1 LTG DSNT W TSB10E25
Nowcast | as of 4:17 PM CDT on September 1, 2015

Scattered showers and thunderstorms will continue to develop and spread slowly north northwest through the evening across the region. Brief heavy rainfall will be possible in the stronger storms over the next couple of hours. Rainfall amounts of several hundredths of an inch to a quarter inch will be possible...with isolated higher amounts of a half inch to an inch possible.

×

10-Day Weather Forecast

×

Almanac

Astronomy

Sep. 01, 2015 Rise Set
Actual Time
Civil Twilight
Nautical Twilight
Astronomical Twilight
Moon
Length of Visible Light
Length of Day
Tomorrow will be .
, % of the Moon is Illuminated

Today's Extremes

State Highs State Lows

Community

WunderPhotos

Upload Photos

1,851,628 photos uploaded!

WunderBlogs® & News

Nearby

Air Quality

  Air Quality AQ Index Pollutant
Not available.

Snow Depth

Station Depth Elevation

Earthquake Activity

City Distance Mag. Time & Date
Minimum magnitude displayed is 2.5.

Coastal Water Temperatures

Place Temperature

Stations

Nearby Weather Stations

Station Location Temp. Windchill Dew Point Humidity Wind Precip. Elev Updated Type